sensor_id;sensor_type;location;lat;lon;timestamp;P1;durP1;ratioP1;P2;durP2;ratioP2
74108;SDS011;62466;47.566;7.786;2023-05-14T00:02:19;4.07;;;3.67;;
74108;SDS011;62466;47.566;7.786;2023-05-14T00:04:45;5.22;;;4.45;;
74108;SDS011;62466;47.566;7.786;2023-05-14T00:07:10;6.72;;;4.60;;
74108;SDS011;62466;47.566;7.786;2023-05-14T00:09:36;4.95;;;4.45;;
74108;SDS011;62466;47.566;7.786;2023-05-14T00:12:01;5.32;;;4.60;;
74108;SDS011;62466;47.566;7.786;2023-05-14T00:14:27;5.22;;;3.90;;
74108;SDS011;62466;47.566;7.786;2023-05-14T00:16:53;5.50;;;4.88;;
74108;SDS011;62466;47.566;7.786;2023-05-14T00:19:18;9.23;;;6.75;;
74108;SDS011;62466;47.566;7.786;2023-05-14T00:21:44;7.05;;;5.90;;
74108;SDS011;62466;47.566;7.786;2023-05-14T00:24:09;9.13;;;6.00;;
74108;SDS011;62466;47.566;7.786;2023-05-14T00:26:35;5.75;;;5.25;;
74108;SDS011;62466;47.566;7.786;2023-05-14T00:29:00;4.72;;;4.28;;
74108;SDS011;62466;47.566;7.786;2023-05-14T00:31:25;5.20;;;4.25;;
74108;SDS011;62466;47.566;7.786;2023-05-14T00:33:51;5.20;;;4.63;;
74108;SDS011;62466;47.566;7.786;2023-05-14T00:36:17;5.18;;;4.30;;
74108;SDS011;62466;47.566;7.786;2023-05-14T00:38:42;5.32;;;4.82;;
74108;SDS011;62466;47.566;7.786;2023-05-14T00:41:08;6.90;;;4.78;;
74108;SDS011;62466;47.566;7.786;2023-05-14T00:43:33;7.28;;;5.47;;
74108;SDS011;62466;47.566;7.786;2023-05-14T00:45:59;6.25;;;4.90;;
74108;SDS011;62466;47.566;7.786;2023-05-14T00:48:25;10.55;;;5.10;;
74108;SDS011;62466;47.566;7.786;2023-05-14T00:50:51;9.55;;;7.05;;
74108;SDS011;62466;47.566;7.786;2023-05-14T00:53:19;6.38;;;5.72;;
74108;SDS011;62466;47.566;7.786;2023-05-14T00:55:45;7.00;;;5.57;;
74108;SDS011;62466;47.566;7.786;2023-05-14T00:58:12;5.75;;;4.97;;
74108;SDS011;62466;47.566;7.786;2023-05-14T01:00:38;7.15;;;5.78;;
74108;SDS011;62466;47.566;7.786;2023-05-14T01:03:05;5.10;;;4.38;;
74108;SDS011;62466;47.566;7.786;2023-05-14T01:05:44;5.07;;;4.68;;
74108;SDS011;62466;47.566;7.786;2023-05-14T01:08:17;5.18;;;4.32;;
74108;SDS011;62466;47.566;7.786;2023-05-14T01:11:05;6.72;;;4.43;;
74108;SDS011;62466;47.566;7.786;2023-05-14T01:13:43;6.47;;;4.18;;
74108;SDS011;62466;47.566;7.786;2023-05-14T01:16:17;6.28;;;3.80;;
74108;SDS011;62466;47.566;7.786;2023-05-14T01:18:43;5.55;;;4.10;;
74108;SDS011;62466;47.566;7.786;2023-05-14T01:23:54;5.35;;;4.18;;
74108;SDS011;62466;47.566;7.786;2023-05-14T01:26:20;4.30;;;3.90;;
74108;SDS011;62466;47.566;7.786;2023-05-14T01:28:45;4.47;;;3.85;;
74108;SDS011;62466;47.566;7.786;2023-05-14T01:31:15;4.22;;;3.60;;
74108;SDS011;62466;47.566;7.786;2023-05-14T01:33:42;5.95;;;4.07;;
74108;SDS011;62466;47.566;7.786;2023-05-14T01:36:09;3.83;;;3.40;;
74108;SDS011;62466;47.566;7.786;2023-05-14T01:38:34;4.82;;;3.97;;
74108;SDS011;62466;47.566;7.786;2023-05-14T01:41:00;5.22;;;3.90;;
74108;SDS011;62466;47.566;7.786;2023-05-14T01:43:26;5.00;;;4.00;;
74108;SDS011;62466;47.566;7.786;2023-05-14T01:45:52;4.72;;;4.32;;
74108;SDS011;62466;47.566;7.786;2023-05-14T01:48:19;6.45;;;4.35;;
74108;SDS011;62466;47.566;7.786;2023-05-14T01:50:45;5.20;;;4.70;;
74108;SDS011;62466;47.566;7.786;2023-05-14T01:53:11;6.38;;;5.70;;
74108;SDS011;62466;47.566;7.786;2023-05-14T01:55:36;5.40;;;4.32;;
74108;SDS011;62466;47.566;7.786;2023-05-14T01:58:02;5.18;;;3.92;;
74108;SDS011;62466;47.566;7.786;2023-05-14T02:00:28;3.80;;;3.42;;
74108;SDS011;62466;47.566;7.786;2023-05-14T02:03:13;4.32;;;3.67;;
74108;SDS011;62466;47.566;7.786;2023-05-14T02:05:39;3.58;;;3.28;;
74108;SDS011;62466;47.566;7.786;2023-05-14T02:08:04;4.38;;;3.97;;
74108;SDS011;62466;47.566;7.786;2023-05-14T02:10:31;4.72;;;3.38;;
74108;SDS011;62466;47.566;7.786;2023-05-14T02:12:59;4.32;;;3.58;;
74108;SDS011;62466;47.566;7.786;2023-05-14T02:15:25;4.03;;;3.63;;
74108;SDS011;62466;47.566;7.786;2023-05-14T02:17:51;6.72;;;3.97;;
74108;SDS011;62466;47.566;7.786;2023-05-14T02:20:16;4.00;;;3.42;;
74108;SDS011;62466;47.566;7.786;2023-05-14T02:22:42;5.03;;;3.92;;
74108;SDS011;62466;47.566;7.786;2023-05-14T02:25:10;4.45;;;4.05;;
74108;SDS011;62466;47.566;7.786;2023-05-14T02:27:35;6.68;;;3.95;;
74108;SDS011;62466;47.566;7.786;2023-05-14T02:30:01;4.18;;;3.80;;
74108;SDS011;62466;47.566;7.786;2023-05-14T02:32:27;5.57;;;4.15;;
74108;SDS011;62466;47.566;7.786;2023-05-14T02:34:53;5.55;;;4.45;;
74108;SDS011;62466;47.566;7.786;2023-05-14T02:37:18;4.93;;;3.95;;
74108;SDS011;62466;47.566;7.786;2023-05-14T02:39:43;4.35;;;3.88;;
74108;SDS011;62466;47.566;7.786;2023-05-14T02:42:09;8.93;;;4.00;;
74108;SDS011;62466;47.566;7.786;2023-05-14T02:44:34;5.30;;;4.22;;
74108;SDS011;62466;47.566;7.786;2023-05-14T02:47:00;5.43;;;4.03;;
74108;SDS011;62466;47.566;7.786;2023-05-14T02:49:25;5.43;;;4.40;;
74108;SDS011;62466;47.566;7.786;2023-05-14T02:51:51;6.30;;;4.65;;
74108;SDS011;62466;47.566;7.786;2023-05-14T02:54:18;4.53;;;4.10;;
74108;SDS011;62466;47.566;7.786;2023-05-14T02:56:43;5.03;;;3.95;;
74108;SDS011;62466;47.566;7.786;2023-05-14T02:59:09;4.05;;;3.63;;
74108;SDS011;62466;47.566;7.786;2023-05-14T03:01:35;4.82;;;3.75;;
74108;SDS011;62466;47.566;7.786;2023-05-14T03:04:00;5.22;;;4.15;;
74108;SDS011;62466;47.566;7.786;2023-05-14T03:06:26;4.00;;;3.60;;
74108;SDS011;62466;47.566;7.786;2023-05-14T03:08:51;5.05;;;4.07;;
74108;SDS011;62466;47.566;7.786;2023-05-14T03:11:17;4.45;;;4.03;;
74108;SDS011;62466;47.566;7.786;2023-05-14T03:13:42;3.90;;;3.60;;
74108;SDS011;62466;47.566;7.786;2023-05-14T03:16:08;5.50;;;3.63;;
74108;SDS011;62466;47.566;7.786;2023-05-14T03:18:33;3.90;;;3.40;;
74108;SDS011;62466;47.566;7.786;2023-05-14T03:21:00;3.95;;;3.65;;
74108;SDS011;62466;47.566;7.786;2023-05-14T03:23:27;5.50;;;4.15;;
74108;SDS011;62466;47.566;7.786;2023-05-14T03:25:56;3.80;;;3.30;;
74108;SDS011;62466;47.566;7.786;2023-05-14T03:28:23;4.00;;;3.60;;
74108;SDS011;62466;47.566;7.786;2023-05-14T03:30:48;4.78;;;4.05;;
74108;SDS011;62466;47.566;7.786;2023-05-14T03:33:14;4.20;;;3.80;;
74108;SDS011;62466;47.566;7.786;2023-05-14T03:35:39;4.05;;;3.63;;
74108;SDS011;62466;47.566;7.786;2023-05-14T03:38:05;4.28;;;3.88;;
74108;SDS011;62466;47.566;7.786;2023-05-14T03:40:32;4.22;;;3.83;;
74108;SDS011;62466;47.566;7.786;2023-05-14T03:42:58;5.47;;;4.45;;
74108;SDS011;62466;47.566;7.786;2023-05-14T03:45:24;4.80;;;3.72;;
74108;SDS011;62466;47.566;7.786;2023-05-14T03:47:51;5.57;;;4.38;;
74108;SDS011;62466;47.566;7.786;2023-05-14T03:50:16;6.28;;;4.70;;
74108;SDS011;62466;47.566;7.786;2023-05-14T03:52:42;6.60;;;4.47;;
74108;SDS011;62466;47.566;7.786;2023-05-14T03:55:08;5.30;;;4.72;;
74108;SDS011;62466;47.566;7.786;2023-05-14T03:57:34;5.78;;;4.57;;
74108;SDS011;62466;47.566;7.786;2023-05-14T04:00:01;4.38;;;3.97;;
74108;SDS011;62466;47.566;7.786;2023-05-14T04:02:27;7.72;;;4.53;;
74108;SDS011;62466;47.566;7.786;2023-05-14T04:04:54;4.28;;;3.88;;
74108;SDS011;62466;47.566;7.786;2023-05-14T04:07:19;5.35;;;3.63;;
74108;SDS011;62466;47.566;7.786;2023-05-14T04:09:45;4.85;;;4.20;;
74108;SDS011;62466;47.566;7.786;2023-05-14T04:12:10;6.32;;;3.70;;
74108;SDS011;62466;47.566;7.786;2023-05-14T04:14:36;4.82;;;4.30;;
74108;SDS011;62466;47.566;7.786;2023-05-14T04:17:01;5.13;;;4.15;;
74108;SDS011;62466;47.566;7.786;2023-05-14T04:19:27;5.88;;;4.22;;
74108;SDS011;62466;47.566;7.786;2023-05-14T04:21:53;5.15;;;4.10;;
74108;SDS011;62466;47.566;7.786;2023-05-14T04:24:18;4.38;;;3.97;;
74108;SDS011;62466;47.566;7.786;2023-05-14T04:26:44;4.60;;;4.20;;
74108;SDS011;62466;47.566;7.786;2023-05-14T04:29:09;5.00;;;4.00;;
74108;SDS011;62466;47.566;7.786;2023-05-14T04:31:35;4.22;;;3.83;;
74108;SDS011;62466;47.566;7.786;2023-05-14T04:34:00;4.32;;;3.92;;
74108;SDS011;62466;47.566;7.786;2023-05-14T04:36:26;4.65;;;4.18;;
74108;SDS011;62466;47.566;7.786;2023-05-14T04:38:51;4.35;;;3.88;;
74108;SDS011;62466;47.566;7.786;2023-05-14T04:41:17;4.72;;;4.25;;
74108;SDS011;62466;47.566;7.786;2023-05-14T04:43:42;4.57;;;4.18;;
74108;SDS011;62466;47.566;7.786;2023-05-14T04:46:08;5.75;;;3.90;;
74108;SDS011;62466;47.566;7.786;2023-05-14T04:48:33;5.78;;;5.00;;
74108;SDS011;62466;47.566;7.786;2023-05-14T04:50:59;6.20;;;5.18;;
74108;SDS011;62466;47.566;7.786;2023-05-14T04:53:25;6.80;;;5.18;;
74108;SDS011;62466;47.566;7.786;2023-05-14T04:55:50;7.10;;;5.47;;
74108;SDS011;62466;47.566;7.786;2023-05-14T04:58:16;7.30;;;6.13;;
74108;SDS011;62466;47.566;7.786;2023-05-14T05:00:41;8.93;;;6.15;;
74108;SDS011;62466;47.566;7.786;2023-05-14T05:03:07;8.40;;;6.13;;
74108;SDS011;62466;47.566;7.786;2023-05-14T05:05:32;8.40;;;6.32;;
74108;SDS011;62466;47.566;7.786;2023-05-14T05:07:59;8.63;;;6.20;;
74108;SDS011;62466;47.566;7.786;2023-05-14T05:10:24;10.38;;;7.03;;
74108;SDS011;62466;47.566;7.786;2023-05-14T05:12:50;9.65;;;7.68;;
74108;SDS011;62466;47.566;7.786;2023-05-14T05:15:15;10.32;;;7.20;;
74108;SDS011;62466;47.566;7.786;2023-05-14T05:17:41;12.65;;;7.25;;
74108;SDS011;62466;47.566;7.786;2023-05-14T05:20:07;10.85;;;7.80;;
74108;SDS011;62466;47.566;7.786;2023-05-14T05:22:34;8.43;;;7.45;;
74108;SDS011;62466;47.566;7.786;2023-05-14T05:25:03;10.02;;;7.10;;
74108;SDS011;62466;47.566;7.786;2023-05-14T05:27:30;9.68;;;7.13;;
74108;SDS011;62466;47.566;7.786;2023-05-14T05:29:57;9.32;;;6.30;;
74108;SDS011;62466;47.566;7.786;2023-05-14T05:32:26;9.70;;;6.80;;
74108;SDS011;62466;47.566;7.786;2023-05-14T05:34:52;9.98;;;6.80;;
74108;SDS011;62466;47.566;7.786;2023-05-14T05:37:18;9.48;;;7.13;;
74108;SDS011;62466;47.566;7.786;2023-05-14T05:39:43;9.98;;;7.22;;
74108;SDS011;62466;47.566;7.786;2023-05-14T05:42:09;8.77;;;6.85;;
74108;SDS011;62466;47.566;7.786;2023-05-14T05:44:35;10.18;;;7.03;;
74108;SDS011;62466;47.566;7.786;2023-05-14T05:47:00;10.05;;;7.75;;
74108;SDS011;62466;47.566;7.786;2023-05-14T05:49:26;11.70;;;7.60;;
74108;SDS011;62466;47.566;7.786;2023-05-14T05:51:51;13.50;;;8.48;;
74108;SDS011;62466;47.566;7.786;2023-05-14T05:54:17;11.15;;;7.70;;
74108;SDS011;62466;47.566;7.786;2023-05-14T05:56:43;12.27;;;8.20;;
74108;SDS011;62466;47.566;7.786;2023-05-14T05:59:08;11.68;;;8.00;;
74108;SDS011;62466;47.566;7.786;2023-05-14T06:01:34;10.10;;;7.80;;
74108;SDS011;62466;47.566;7.786;2023-05-14T06:03:59;12.18;;;8.15;;
74108;SDS011;62466;47.566;7.786;2023-05-14T06:06:26;11.25;;;7.50;;
74108;SDS011;62466;47.566;7.786;2023-05-14T06:08:52;10.52;;;7.68;;
74108;SDS011;62466;47.566;7.786;2023-05-14T06:11:18;11.02;;;7.82;;
74108;SDS011;62466;47.566;7.786;2023-05-14T06:13:43;11.70;;;7.70;;
74108;SDS011;62466;47.566;7.786;2023-05-14T06:16:08;13.77;;;8.00;;
74108;SDS011;62466;47.566;7.786;2023-05-14T06:18:34;11.00;;;8.02;;
74108;SDS011;62466;47.566;7.786;2023-05-14T06:21:00;13.18;;;9.10;;
74108;SDS011;62466;47.566;7.786;2023-05-14T06:23:25;12.50;;;8.63;;
74108;SDS011;62466;47.566;7.786;2023-05-14T06:25:51;10.10;;;7.88;;
74108;SDS011;62466;47.566;7.786;2023-05-14T06:28:16;10.50;;;7.80;;
74108;SDS011;62466;47.566;7.786;2023-05-14T06:30:42;10.50;;;7.55;;
74108;SDS011;62466;47.566;7.786;2023-05-14T06:33:07;12.35;;;8.23;;
74108;SDS011;62466;47.566;7.786;2023-05-14T06:35:33;10.73;;;8.07;;
74108;SDS011;62466;47.566;7.786;2023-05-14T06:37:58;11.40;;;8.40;;
74108;SDS011;62466;47.566;7.786;2023-05-14T06:40:24;11.23;;;8.77;;
74108;SDS011;62466;47.566;7.786;2023-05-14T06:42:50;11.93;;;8.00;;
74108;SDS011;62466;47.566;7.786;2023-05-14T06:45:15;10.32;;;7.55;;
74108;SDS011;62466;47.566;7.786;2023-05-14T06:47:40;13.02;;;8.43;;
74108;SDS011;62466;47.566;7.786;2023-05-14T06:50:06;12.50;;;8.32;;
74108;SDS011;62466;47.566;7.786;2023-05-14T06:52:31;12.90;;;8.30;;
74108;SDS011;62466;47.566;7.786;2023-05-14T06:54:57;13.18;;;9.05;;
74108;SDS011;62466;47.566;7.786;2023-05-14T06:57:28;14.00;;;8.82;;
74108;SDS011;62466;47.566;7.786;2023-05-14T06:59:54;11.25;;;8.63;;
74108;SDS011;62466;47.566;7.786;2023-05-14T07:02:19;13.20;;;9.35;;
74108;SDS011;62466;47.566;7.786;2023-05-14T07:04:45;12.88;;;9.65;;
74108;SDS011;62466;47.566;7.786;2023-05-14T07:07:10;11.52;;;8.38;;
74108;SDS011;62466;47.566;7.786;2023-05-14T07:09:39;11.73;;;8.80;;
74108;SDS011;62466;47.566;7.786;2023-05-14T07:12:06;11.65;;;8.52;;
74108;SDS011;62466;47.566;7.786;2023-05-14T07:14:32;11.52;;;8.07;;
74108;SDS011;62466;47.566;7.786;2023-05-14T07:16:58;14.05;;;8.60;;
74108;SDS011;62466;47.566;7.786;2023-05-14T07:19:27;13.32;;;9.30;;
74108;SDS011;62466;47.566;7.786;2023-05-14T07:22:00;10.65;;;7.70;;
74108;SDS011;62466;47.566;7.786;2023-05-14T07:24:25;10.77;;;7.88;;
74108;SDS011;62466;47.566;7.786;2023-05-14T07:26:51;10.35;;;7.47;;
74108;SDS011;62466;47.566;7.786;2023-05-14T07:29:18;11.60;;;8.27;;
74108;SDS011;62466;47.566;7.786;2023-05-14T07:31:44;10.50;;;8.10;;
74108;SDS011;62466;47.566;7.786;2023-05-14T07:34:09;13.23;;;8.40;;
74108;SDS011;62466;47.566;7.786;2023-05-14T07:36:35;11.10;;;8.20;;
74108;SDS011;62466;47.566;7.786;2023-05-14T07:39:01;10.88;;;7.45;;
74108;SDS011;62466;47.566;7.786;2023-05-14T07:41:26;10.93;;;7.72;;
74108;SDS011;62466;47.566;7.786;2023-05-14T07:43:52;11.15;;;8.07;;
74108;SDS011;62466;47.566;7.786;2023-05-14T07:46:17;13.75;;;8.27;;
74108;SDS011;62466;47.566;7.786;2023-05-14T07:48:42;11.00;;;8.07;;
74108;SDS011;62466;47.566;7.786;2023-05-14T07:51:08;11.75;;;7.90;;
74108;SDS011;62466;47.566;7.786;2023-05-14T07:53:33;10.45;;;7.90;;
74108;SDS011;62466;47.566;7.786;2023-05-14T07:55:59;11.40;;;8.05;;
74108;SDS011;62466;47.566;7.786;2023-05-14T07:58:24;12.98;;;7.20;;
74108;SDS011;62466;47.566;7.786;2023-05-14T08:00:51;11.35;;;7.85;;
74108;SDS011;62466;47.566;7.786;2023-05-14T08:03:17;13.13;;;9.15;;
74108;SDS011;62466;47.566;7.786;2023-05-14T08:05:43;12.20;;;8.32;;
74108;SDS011;62466;47.566;7.786;2023-05-14T08:08:08;10.55;;;8.43;;
74108;SDS011;62466;47.566;7.786;2023-05-14T08:10:34;12.57;;;8.30;;
74108;SDS011;62466;47.566;7.786;2023-05-14T08:12:59;13.68;;;8.00;;
74108;SDS011;62466;47.566;7.786;2023-05-14T08:15:25;12.38;;;8.63;;
74108;SDS011;62466;47.566;7.786;2023-05-14T08:17:50;11.35;;;7.60;;
74108;SDS011;62466;47.566;7.786;2023-05-14T08:20:16;11.40;;;7.75;;
74108;SDS011;62466;47.566;7.786;2023-05-14T08:22:41;10.70;;;7.47;;
74108;SDS011;62466;47.566;7.786;2023-05-14T08:25:07;11.80;;;8.27;;
74108;SDS011;62466;47.566;7.786;2023-05-14T08:27:32;13.65;;;8.38;;
74108;SDS011;62466;47.566;7.786;2023-05-14T08:29:58;10.85;;;8.10;;
74108;SDS011;62466;47.566;7.786;2023-05-14T08:32:24;9.38;;;7.70;;
74108;SDS011;62466;47.566;7.786;2023-05-14T08:34:50;9.52;;;7.35;;
74108;SDS011;62466;47.566;7.786;2023-05-14T08:37:19;12.15;;;7.70;;
74108;SDS011;62466;47.566;7.786;2023-05-14T08:39:44;10.13;;;8.13;;
74108;SDS011;62466;47.566;7.786;2023-05-14T08:42:11;10.52;;;7.68;;
74108;SDS011;62466;47.566;7.786;2023-05-14T08:47:11;10.68;;;7.95;;
74108;SDS011;62466;47.566;7.786;2023-05-14T08:49:41;11.43;;;7.70;;
74108;SDS011;62466;47.566;7.786;2023-05-14T08:52:10;9.15;;;7.45;;
74108;SDS011;62466;47.566;7.786;2023-05-14T08:54:37;10.52;;;7.75;;
74108;SDS011;62466;47.566;7.786;2023-05-14T08:57:03;10.45;;;7.53;;
74108;SDS011;62466;47.566;7.786;2023-05-14T08:59:29;10.80;;;7.80;;
74108;SDS011;62466;47.566;7.786;2023-05-14T09:01:55;12.20;;;8.07;;
74108;SDS011;62466;47.566;7.786;2023-05-14T09:04:26;10.25;;;7.60;;
74108;SDS011;62466;47.566;7.786;2023-05-14T09:06:56;10.07;;;7.40;;
74108;SDS011;62466;47.566;7.786;2023-05-14T09:09:24;8.82;;;7.18;;
74108;SDS011;62466;47.566;7.786;2023-05-14T09:11:51;9.27;;;7.30;;
74108;SDS011;62466;47.566;7.786;2023-05-14T09:14:18;8.20;;;6.45;;
74108;SDS011;62466;47.566;7.786;2023-05-14T09:16:44;9.30;;;7.25;;
74108;SDS011;62466;47.566;7.786;2023-05-14T09:19:11;9.63;;;7.82;;
74108;SDS011;62466;47.566;7.786;2023-05-14T09:21:38;9.45;;;6.32;;
74108;SDS011;62466;47.566;7.786;2023-05-14T09:24:04;10.85;;;6.03;;
74108;SDS011;62466;47.566;7.786;2023-05-14T09:26:31;7.20;;;6.50;;
74108;SDS011;62466;47.566;7.786;2023-05-14T09:29:00;9.60;;;7.03;;
74108;SDS011;62466;47.566;7.786;2023-05-14T09:31:28;8.48;;;6.50;;
74108;SDS011;62466;47.566;7.786;2023-05-14T09:33:55;8.73;;;6.95;;
74108;SDS011;62466;47.566;7.786;2023-05-14T09:36:21;7.45;;;6.30;;
74108;SDS011;62466;47.566;7.786;2023-05-14T09:38:51;8.90;;;6.45;;
74108;SDS011;62466;47.566;7.786;2023-05-14T09:41:20;7.95;;;6.45;;
74108;SDS011;62466;47.566;7.786;2023-05-14T09:43:47;9.20;;;6.57;;
74108;SDS011;62466;47.566;7.786;2023-05-14T09:46:17;9.05;;;6.28;;
74108;SDS011;62466;47.566;7.786;2023-05-14T09:49:07;9.13;;;7.30;;
74108;SDS011;62466;47.566;7.786;2023-05-14T09:51:45;8.05;;;6.63;;
74108;SDS011;62466;47.566;7.786;2023-05-14T09:56:42;9.98;;;7.15;;
74108;SDS011;62466;47.566;7.786;2023-05-14T09:59:08;10.50;;;7.72;;
74108;SDS011;62466;47.566;7.786;2023-05-14T10:01:37;7.38;;;6.18;;
74108;SDS011;62466;47.566;7.786;2023-05-14T10:04:05;8.82;;;6.88;;
74108;SDS011;62466;47.566;7.786;2023-05-14T10:06:32;10.27;;;6.68;;
74108;SDS011;62466;47.566;7.786;2023-05-14T10:09:14;11.02;;;6.68;;
74108;SDS011;62466;47.566;7.786;2023-05-14T10:11:53;9.13;;;6.30;;
74108;SDS011;62466;47.566;7.786;2023-05-14T10:17:55;8.20;;;6.47;;
74108;SDS011;62466;47.566;7.786;2023-05-14T10:20:56;6.00;;;5.22;;
74108;SDS011;62466;47.566;7.786;2023-05-14T10:26:55;5.90;;;5.30;;
74108;SDS011;62466;47.566;7.786;2023-05-14T10:30:00;7.38;;;6.03;;
74108;SDS011;62466;47.566;7.786;2023-05-14T10:32:48;6.78;;;5.75;;
74108;SDS011;62466;47.566;7.786;2023-05-14T10:35:30;5.68;;;5.10;;
74108;SDS011;62466;47.566;7.786;2023-05-14T10:38:48;5.72;;;4.78;;
74108;SDS011;62466;47.566;7.786;2023-05-14T10:41:22;5.18;;;4.50;;
74108;SDS011;62466;47.566;7.786;2023-05-14T10:43:49;7.00;;;5.32;;
74108;SDS011;62466;47.566;7.786;2023-05-14T10:46:18;5.72;;;5.10;;
74108;SDS011;62466;47.566;7.786;2023-05-14T10:48:50;5.40;;;4.90;;
74108;SDS011;62466;47.566;7.786;2023-05-14T10:51:16;6.10;;;5.45;;
74108;SDS011;62466;47.566;7.786;2023-05-14T10:53:45;4.97;;;4.47;;
74108;SDS011;62466;47.566;7.786;2023-05-14T10:56:12;5.40;;;4.35;;
74108;SDS011;62466;47.566;7.786;2023-05-14T10:58:39;4.85;;;4.35;;
74108;SDS011;62466;47.566;7.786;2023-05-14T11:01:15;4.45;;;4.05;;
74108;SDS011;62466;47.566;7.786;2023-05-14T11:03:47;5.57;;;4.30;;
74108;SDS011;62466;47.566;7.786;2023-05-14T11:06:26;4.88;;;4.30;;
74108;SDS011;62466;47.566;7.786;2023-05-14T11:08:56;4.30;;;3.90;;
74108;SDS011;62466;47.566;7.786;2023-05-14T11:11:37;5.05;;;4.55;;
74108;SDS011;62466;47.566;7.786;2023-05-14T11:14:06;4.85;;;4.00;;
74108;SDS011;62466;47.566;7.786;2023-05-14T11:16:51;5.50;;;4.50;;
74108;SDS011;62466;47.566;7.786;2023-05-14T11:19:17;3.80;;;3.50;;
74108;SDS011;62466;47.566;7.786;2023-05-14T11:21:45;5.95;;;3.97;;
74108;SDS011;62466;47.566;7.786;2023-05-14T11:24:12;4.38;;;3.63;;
74108;SDS011;62466;47.566;7.786;2023-05-14T11:26:40;2.63;;;2.42;;
74108;SDS011;62466;47.566;7.786;2023-05-14T11:29:07;1.98;;;1.70;;
74108;SDS011;62466;47.566;7.786;2023-05-14T11:34:44;2.33;;;2.20;;
74108;SDS011;62466;47.566;7.786;2023-05-14T11:37:14;2.80;;;2.30;;
74108;SDS011;62466;47.566;7.786;2023-05-14T11:39:53;2.50;;;2.30;;
74108;SDS011;62466;47.566;7.786;2023-05-14T11:42:20;2.10;;;2.00;;
74108;SDS011;62466;47.566;7.786;2023-05-14T11:45:05;2.28;;;2.08;;
74108;SDS011;62466;47.566;7.786;2023-05-14T11:47:31;2.25;;;2.05;;
74108;SDS011;62466;47.566;7.786;2023-05-14T11:49:57;2.08;;;1.88;;
74108;SDS011;62466;47.566;7.786;2023-05-14T11:52:24;2.72;;;1.58;;
74108;SDS011;62466;47.566;7.786;2023-05-14T11:54:50;2.20;;;2.10;;
74108;SDS011;62466;47.566;7.786;2023-05-14T11:57:17;1.70;;;1.58;;
74108;SDS011;62466;47.566;7.786;2023-05-14T11:59:43;2.00;;;1.85;;
74108;SDS011;62466;47.566;7.786;2023-05-14T12:02:10;2.05;;;1.95;;
74108;SDS011;62466;47.566;7.786;2023-05-14T12:04:37;2.35;;;2.08;;
74108;SDS011;62466;47.566;7.786;2023-05-14T12:07:09;2.63;;;1.98;;
74108;SDS011;62466;47.566;7.786;2023-05-14T12:09:37;1.70;;;1.60;;
74108;SDS011;62466;47.566;7.786;2023-05-14T12:12:07;2.47;;;1.80;;
74108;SDS011;62466;47.566;7.786;2023-05-14T12:14:39;1.47;;;1.37;;
74108;SDS011;62466;47.566;7.786;2023-05-14T12:19:40;1.85;;;1.75;;
74108;SDS011;62466;47.566;7.786;2023-05-14T12:22:06;2.22;;;2.03;;
74108;SDS011;62466;47.566;7.786;2023-05-14T12:24:32;2.28;;;2.08;;
74108;SDS011;62466;47.566;7.786;2023-05-14T12:26:59;2.42;;;2.22;;
74108;SDS011;62466;47.566;7.786;2023-05-14T12:29:25;3.35;;;2.28;;
74108;SDS011;62466;47.566;7.786;2023-05-14T12:31:51;2.92;;;2.60;;
74108;SDS011;62466;47.566;7.786;2023-05-14T12:34:16;4.00;;;3.42;;
74108;SDS011;62466;47.566;7.786;2023-05-14T12:36:42;4.30;;;3.70;;
74108;SDS011;62466;47.566;7.786;2023-05-14T12:39:08;4.50;;;3.75;;
74108;SDS011;62466;47.566;7.786;2023-05-14T12:41:34;3.78;;;3.47;;
74108;SDS011;62466;47.566;7.786;2023-05-14T12:44:01;4.55;;;4.07;;
74108;SDS011;62466;47.566;7.786;2023-05-14T12:46:28;7.82;;;5.57;;
74108;SDS011;62466;47.566;7.786;2023-05-14T12:48:54;4.70;;;4.20;;
74108;SDS011;62466;47.566;7.786;2023-05-14T12:53:56;6.93;;;5.25;;
74108;SDS011;62466;47.566;7.786;2023-05-14T12:56:25;5.97;;;5.38;;
74108;SDS011;62466;47.566;7.786;2023-05-14T12:58:58;5.07;;;4.57;;
74108;SDS011;62466;47.566;7.786;2023-05-14T13:01:24;5.45;;;4.95;;
74108;SDS011;62466;47.566;7.786;2023-05-14T13:03:50;5.05;;;4.55;;
74108;SDS011;62466;47.566;7.786;2023-05-14T13:06:22;4.53;;;4.10;;
74108;SDS011;62466;47.566;7.786;2023-05-14T13:08:51;4.75;;;4.20;;
74108;SDS011;62466;47.566;7.786;2023-05-14T13:11:24;4.85;;;4.35;;
74108;SDS011;62466;47.566;7.786;2023-05-14T13:13:51;4.20;;;3.80;;
74108;SDS011;62466;47.566;7.786;2023-05-14T13:16:17;5.22;;;3.78;;
74108;SDS011;62466;47.566;7.786;2023-05-14T13:19:01;4.97;;;3.72;;
74108;SDS011;62466;47.566;7.786;2023-05-14T13:21:26;3.55;;;3.25;;
74108;SDS011;62466;47.566;7.786;2023-05-14T13:23:52;3.88;;;3.47;;
74108;SDS011;62466;47.566;7.786;2023-05-14T13:26:17;4.70;;;3.90;;
74108;SDS011;62466;47.566;7.786;2023-05-14T13:28:43;4.32;;;3.92;;
74108;SDS011;62466;47.566;7.786;2023-05-14T13:31:12;4.38;;;3.97;;
74108;SDS011;62466;47.566;7.786;2023-05-14T13:33:42;4.38;;;3.95;;
74108;SDS011;62466;47.566;7.786;2023-05-14T13:36:08;4.05;;;3.65;;
74108;SDS011;62466;47.566;7.786;2023-05-14T13:38:36;3.70;;;3.28;;
74108;SDS011;62466;47.566;7.786;2023-05-14T13:41:04;2.97;;;2.70;;
74108;SDS011;62466;47.566;7.786;2023-05-14T13:43:35;3.97;;;2.42;;
74108;SDS011;62466;47.566;7.786;2023-05-14T13:46:02;3.47;;;1.80;;
74108;SDS011;62466;47.566;7.786;2023-05-14T13:48:47;2.05;;;1.85;;
74108;SDS011;62466;47.566;7.786;2023-05-14T13:51:13;1.40;;;1.30;;
74108;SDS011;62466;47.566;7.786;2023-05-14T13:53:45;1.00;;;1.00;;
74108;SDS011;62466;47.566;7.786;2023-05-14T13:56:10;2.85;;;1.30;;
74108;SDS011;62466;47.566;7.786;2023-05-14T13:58:38;2.35;;;1.67;;
74108;SDS011;62466;47.566;7.786;2023-05-14T14:01:06;5.60;;;2.75;;
74108;SDS011;62466;47.566;7.786;2023-05-14T14:03:35;4.47;;;2.05;;
74108;SDS011;62466;47.566;7.786;2023-05-14T14:06:01;2.97;;;2.17;;
74108;SDS011;62466;47.566;7.786;2023-05-14T14:08:27;4.13;;;3.05;;
74108;SDS011;62466;47.566;7.786;2023-05-14T14:10:53;3.97;;;3.40;;
74108;SDS011;62466;47.566;7.786;2023-05-14T14:13:19;3.70;;;3.40;;
74108;SDS011;62466;47.566;7.786;2023-05-14T14:15:47;4.25;;;2.80;;
74108;SDS011;62466;47.566;7.786;2023-05-14T14:18:14;6.13;;;3.22;;
74108;SDS011;62466;47.566;7.786;2023-05-14T14:20:39;7.30;;;3.80;;
74108;SDS011;62466;47.566;7.786;2023-05-14T14:23:08;5.18;;;4.18;;
74108;SDS011;62466;47.566;7.786;2023-05-14T14:25:33;4.50;;;4.10;;
74108;SDS011;62466;47.566;7.786;2023-05-14T14:27:59;14.32;;;4.95;;
74108;SDS011;62466;47.566;7.786;2023-05-14T14:30:25;6.68;;;4.60;;
74108;SDS011;62466;47.566;7.786;2023-05-14T14:32:50;5.75;;;4.22;;
74108;SDS011;62466;47.566;7.786;2023-05-14T14:35:22;5.53;;;3.40;;
74108;SDS011;62466;47.566;7.786;2023-05-14T14:37:48;5.32;;;3.47;;
74108;SDS011;62466;47.566;7.786;2023-05-14T14:40:16;4.65;;;3.45;;
74108;SDS011;62466;47.566;7.786;2023-05-14T14:42:44;6.35;;;3.67;;
74108;SDS011;62466;47.566;7.786;2023-05-14T14:45:10;5.88;;;3.33;;
74108;SDS011;62466;47.566;7.786;2023-05-14T14:47:41;3.05;;;2.75;;
74108;SDS011;62466;47.566;7.786;2023-05-14T14:50:12;4.03;;;2.83;;
74108;SDS011;62466;47.566;7.786;2023-05-14T14:52:39;3.20;;;2.35;;
74108;SDS011;62466;47.566;7.786;2023-05-14T14:55:08;2.53;;;2.30;;
74108;SDS011;62466;47.566;7.786;2023-05-14T14:57:36;3.15;;;2.00;;
74108;SDS011;62466;47.566;7.786;2023-05-14T15:00:08;1.80;;;1.70;;
74108;SDS011;62466;47.566;7.786;2023-05-14T15:02:34;3.40;;;1.73;;
74108;SDS011;62466;47.566;7.786;2023-05-14T15:05:05;2.50;;;2.30;;
74108;SDS011;62466;47.566;7.786;2023-05-14T15:07:53;3.35;;;1.70;;
74108;SDS011;62466;47.566;7.786;2023-05-14T15:10:22;2.90;;;2.17;;
74108;SDS011;62466;47.566;7.786;2023-05-14T15:12:51;2.08;;;1.88;;